Time;durP1;ratioP1;P1;durP2;ratioP2;P2;SDS_P1;SDS_P2;PMS_P1;PMS_P2;Temp;Humidity;BMP_temperature;BMP_pressure;BME280_temperature;BME280_humidity;BME280_pressure;Samples;Min_cycle;Max_cycle;Signal;HPM_P1;HPM_P2
2023/01/20 00:02:01;;;;;;;11.05;10.25;;;;;;;;;;4998457;28;20039;-54
2023/01/20 00:04:26;;;;;;;10.88;9.98;;;;;;;;;;4998449;28;20034;-56
2023/01/20 00:06:53;;;;;;;10.18;9.48;;;;;;;;;;4998839;28;20145;-56
2023/01/20 00:09:18;;;;;;;10.63;9.93;;;;;;;;;;4999264;28;20064;-56
2023/01/20 00:11:44;;;;;;;11.48;10.68;;;;;;;;;;4996022;28;20121;-55
2023/01/20 00:14:09;;;;;;;11.90;11.00;;;;;;;;;;4999014;28;20029;-55
2023/01/20 00:16:35;;;;;;;12.02;11.13;;;;;;;;;;4999007;28;20038;-56
2023/01/20 00:19:01;;;;;;;10.70;10.00;;;;;;;;;;4995948;28;20042;-55
2023/01/20 00:21:26;;;;;;;11.05;10.25;;;;;;;;;;4996199;28;20033;-53
2023/01/20 00:23:52;;;;;;;11.18;10.38;;;;;;;;;;4999392;28;20045;-56
2023/01/20 00:26:20;;;;;;;12.50;11.35;;;;;;;;;;4995913;28;20099;-56
2023/01/20 00:28:46;;;;;;;11.60;10.80;;;;;;;;;;4996973;28;20033;-55
2023/01/20 00:31:26;;;;;;;11.27;10.50;;;;;;;;;;5003019;28;20129;-55
2023/01/20 00:33:54;;;;;;;10.25;9.55;;;;;;;;;;4997591;28;20053;-55
2023/01/20 00:36:21;;;;;;;11.88;10.90;;;;;;;;;;4997306;28;20045;-54
2023/01/20 00:38:47;;;;;;;10.52;9.82;;;;;;;;;;4997959;28;20483;-55
2023/01/20 00:41:12;;;;;;;10.95;10.15;;;;;;;;;;4999217;28;20123;-53
2023/01/20 00:43:38;;;;;;;10.77;9.88;;;;;;;;;;4995736;28;20266;-54
2023/01/20 00:46:04;;;;;;;11.15;10.25;;;;;;;;;;4998674;28;20417;-56
2023/01/20 00:48:30;;;;;;;10.75;9.85;;;;;;;;;;5000065;28;20038;-56
2023/01/20 00:50:55;;;;;;;10.50;9.77;;;;;;;;;;4999385;28;20148;-55
2023/01/20 00:53:20;;;;;;;11.43;10.57;;;;;;;;;;4996576;28;20092;-55
2023/01/20 00:55:46;;;;;;;9.63;9.02;;;;;;;;;;4998724;28;20509;-55
2023/01/20 00:58:11;;;;;;;10.55;9.85;;;;;;;;;;4997503;28;20377;-55
2023/01/20 01:00:37;;;;;;;10.02;9.32;;;;;;;;;;4995934;28;20042;-53
2023/01/20 01:03:02;;;;;;;10.85;9.85;;;;;;;;;;4997622;28;20444;-53
2023/01/20 01:05:27;;;;;;;12.18;11.32;;;;;;;;;;4997412;28;20448;-55
2023/01/20 01:07:53;;;;;;;11.52;10.73;;;;;;;;;;4995962;28;20037;-55
2023/01/20 01:10:18;;;;;;;11.95;10.43;;;;;;;;;;4995420;28;20472;-56
2023/01/20 01:12:44;;;;;;;11.32;10.63;;;;;;;;;;4997226;28;20042;-56
2023/01/20 01:15:10;;;;;;;10.60;9.90;;;;;;;;;;4993982;28;20023;-55
2023/01/20 01:17:35;;;;;;;14.80;9.52;;;;;;;;;;4996648;28;20093;-54
2023/01/20 01:20:01;;;;;;;10.18;9.48;;;;;;;;;;4995091;28;20034;-56
2023/01/20 01:22:26;;;;;;;10.75;10.05;;;;;;;;;;5004110;28;20038;-56
2023/01/20 01:24:52;;;;;;;9.98;9.38;;;;;;;;;;4998448;28;20043;-55
2023/01/20 01:27:17;;;;;;;9.27;8.68;;;;;;;;;;4996752;28;20049;-56
2023/01/20 01:29:42;;;;;;;11.48;10.70;;;;;;;;;;4996069;28;20591;-58
2023/01/20 01:32:08;;;;;;;10.52;9.68;;;;;;;;;;4998939;28;20022;-56
2023/01/20 01:34:33;;;;;;;11.32;10.52;;;;;;;;;;4996422;28;20461;-56
2023/01/20 01:36:59;;;;;;;10.48;9.73;;;;;;;;;;4996873;28;20087;-57
2023/01/20 01:39:24;;;;;;;10.63;9.85;;;;;;;;;;4997606;28;20034;-56
2023/01/20 01:41:50;;;;;;;10.75;10.05;;;;;;;;;;4995095;28;20105;-56
2023/01/20 01:44:16;;;;;;;10.38;9.68;;;;;;;;;;4995269;28;20062;-57
2023/01/20 01:46:42;;;;;;;10.05;9.38;;;;;;;;;;4998527;28;20034;-57
2023/01/20 01:49:16;;;;;;;10.48;9.60;;;;;;;;;;4996162;28;20084;-57
2023/01/20 01:51:49;;;;;;;10.13;9.43;;;;;;;;;;4995933;28;20029;-57
2023/01/20 01:54:17;;;;;;;11.35;10.40;;;;;;;;;;4998260;28;20034;-57
2023/01/20 01:56:44;;;;;;;10.50;9.73;;;;;;;;;;4996947;28;20042;-57
2023/01/20 01:59:11;;;;;;;10.68;9.98;;;;;;;;;;4995504;28;20030;-57
2023/01/20 02:01:39;;;;;;;11.25;10.35;;;;;;;;;;4994662;28;20508;-57
2023/01/20 02:04:17;;;;;;;10.00;9.30;;;;;;;;;;4997686;28;20457;-57
2023/01/20 02:06:49;;;;;;;12.05;11.20;;;;;;;;;;4995134;28;20045;-57
2023/01/20 02:09:15;;;;;;;13.10;12.02;;;;;;;;;;5003666;28;20124;-57
2023/01/20 02:11:47;;;;;;;11.02;10.30;;;;;;;;;;4995284;28;20131;-57
2023/01/20 02:14:15;;;;;;;10.43;9.73;;;;;;;;;;4995945;28;20456;-57
2023/01/20 02:16:51;;;;;;;11.82;11.02;;;;;;;;;;4996020;28;20030;-57
2023/01/20 02:19:45;;;;;;;11.40;10.65;;;;;;;;;;4993623;28;20479;-57
2023/01/20 02:22:16;;;;;;;10.32;9.63;;;;;;;;;;4995607;28;20087;-57
2023/01/20 02:24:48;;;;;;;;;;;;;;;;;;4995238;28;20050;-58
2023/01/20 02:27:18;;;;;;;11.75;10.95;;;;;;;;;;4996639;28;19967;-57
2023/01/20 02:30:07;;;;;;;10.60;9.90;;;;;;;;;;4994248;28;20411;-57
2023/01/20 02:33:00;;;;;;;12.70;11.82;;;;;;;;;;4997463;28;20037;-56
2023/01/20 02:35:32;;;;;;;11.77;10.88;;;;;;;;;;4995319;28;20045;-57
2023/01/20 02:38:10;;;;;;;10.90;10.05;;;;;;;;;;4996731;28;20042;-57
2023/01/20 02:40:47;;;;;;;11.52;10.75;;;;;;;;;;5012902;28;20121;-57
2023/01/20 02:43:15;;;;;;;11.85;10.98;;;;;;;;;;5001761;28;20081;-57
2023/01/20 02:45:51;;;;;;;10.20;9.52;;;;;;;;;;4992498;28;20048;-57
2023/01/20 02:48:35;;;;;;;10.68;9.98;;;;;;;;;;4995364;28;20041;-57
2023/01/20 02:51:18;;;;;;;11.77;10.98;;;;;;;;;;4994563;28;20056;-57
2023/01/20 02:53:50;;;;;;;10.43;9.75;;;;;;;;;;4986919;28;20038;-56
2023/01/20 02:56:16;;;;;;;;;;;;;;;;;;4996380;28;20018;-55
2023/01/20 02:58:55;;;;;;;11.20;10.43;;;;;;;;;;4993833;28;20352;-57
2023/01/20 03:01:25;;;;;;;10.93;10.23;;;;;;;;;;4993652;28;20565;-56
2023/01/20 03:03:53;;;;;;;12.33;11.47;;;;;;;;;;5000023;28;20069;-57
2023/01/20 03:06:22;;;;;;;11.57;10.77;;;;;;;;;;4994610;28;20046;-57
2023/01/20 03:08:51;;;;;;;11.18;10.48;;;;;;;;;;4994548;28;20133;-57
2023/01/20 03:11:17;;;;;;;12.80;11.95;;;;;;;;;;4995389;28;20046;-56
2023/01/20 03:13:54;;;;;;;10.52;9.82;;;;;;;;;;4995775;28;20771;-56
2023/01/20 03:16:22;;;;;;;12.32;11.43;;;;;;;;;;4996905;28;20060;-56
2023/01/20 03:18:49;;;;;;;12.10;11.15;;;;;;;;;;4998209;28;20152;-56
2023/01/20 03:21:15;;;;;;;11.52;10.73;;;;;;;;;;4994373;28;20455;-57
2023/01/20 03:23:46;;;;;;;11.70;10.90;;;;;;;;;;4994775;28;20069;-58
2023/01/20 03:26:14;;;;;;;10.85;10.13;;;;;;;;;;4995640;28;20127;-56
2023/01/20 03:28:44;;;;;;;10.35;9.55;;;;;;;;;;4996789;28;20038;-57
2023/01/20 03:31:19;;;;;;;11.23;10.43;;;;;;;;;;4993056;28;20045;-56
2023/01/20 03:33:46;;;;;;;12.73;11.55;;;;;;;;;;4995857;28;20030;-56
2023/01/20 03:36:13;;;;;;;12.45;11.55;;;;;;;;;;4993628;28;20038;-57
2023/01/20 03:38:38;;;;;;;10.85;10.15;;;;;;;;;;4994322;28;20448;-57
2023/01/20 03:41:13;;;;;;;12.00;11.20;;;;;;;;;;4991440;28;20092;-57
2023/01/20 03:43:49;;;;;;;10.80;9.98;;;;;;;;;;4996406;28;20052;-57
2023/01/20 03:46:30;;;;;;;11.05;10.13;;;;;;;;;;4994445;28;20057;-56
2023/01/20 03:49:08;;;;;;;13.68;12.68;;;;;;;;;;4998457;28;20419;-56
2023/01/20 03:51:55;;;;;;;10.93;10.23;;;;;;;;;;4992132;28;20061;-56
2023/01/20 03:54:29;;;;;;;11.48;10.68;;;;;;;;;;4992172;28;20041;-56
2023/01/20 03:57:19;;;;;;;10.85;10.05;;;;;;;;;;4995962;28;20396;-56
2023/01/20 03:59:48;;;;;;;10.70;9.98;;;;;;;;;;4993112;28;20587;-56
2023/01/20 04:02:13;;;;;;;10.88;10.18;;;;;;;;;;4996381;28;20037;-55
2023/01/20 04:04:41;;;;;;;11.50;10.70;;;;;;;;;;4998624;28;20451;-57
2023/01/20 04:07:11;;;;;;;11.32;10.52;;;;;;;;;;4995948;28;20038;-55
2023/01/20 04:09:46;;;;;;;9.77;9.18;;;;;;;;;;4991463;28;20030;-56
2023/01/20 04:12:12;;;;;;;11.10;10.30;;;;;;;;;;4995166;28;20085;-56
2023/01/20 04:14:38;;;;;;;11.10;10.40;;;;;;;;;;4997222;28;20463;-57
2023/01/20 04:17:04;;;;;;;11.35;10.52;;;;;;;;;;5001342;28;20076;-57
2023/01/20 04:19:29;;;;;;;10.70;10.00;;;;;;;;;;4998428;28;20029;-57
2023/01/20 04:21:59;;;;;;;11.48;10.65;;;;;;;;;;4994285;28;20558;-57
2023/01/20 04:24:30;;;;;;;12.52;11.50;;;;;;;;;;4999346;28;20486;-57
2023/01/20 04:26:55;;;;;;;12.40;11.27;;;;;;;;;;4995085;28;20030;-57
2023/01/20 04:29:20;;;;;;;12.82;11.75;;;;;;;;;;4997384;28;20053;-58
2023/01/20 04:31:46;;;;;;;10.75;10.05;;;;;;;;;;4998173;28;20057;-58
2023/01/20 04:34:14;;;;;;;11.43;10.43;;;;;;;;;;4997830;28;20522;-58
2023/01/20 04:36:40;;;;;;;12.93;11.93;;;;;;;;;;4998650;28;20030;-58
2023/01/20 04:39:06;;;;;;;11.13;10.43;;;;;;;;;;4998510;28;20476;-60
2023/01/20 04:41:31;;;;;;;13.27;12.38;;;;;;;;;;4995946;28;20453;-59
2023/01/20 04:43:56;;;;;;;12.60;11.70;;;;;;;;;;4999000;28;20124;-58
2023/01/20 04:46:22;;;;;;;10.52;9.82;;;;;;;;;;4995872;28;20038;-59
2023/01/20 04:48:47;;;;;;;11.60;10.77;;;;;;;;;;4999097;28;20080;-60
2023/01/20 04:51:13;;;;;;;10.27;9.57;;;;;;;;;;4996303;28;20042;-58
2023/01/20 04:53:39;;;;;;;11.55;10.75;;;;;;;;;;4999163;28;20029;-59
2023/01/20 04:56:09;;;;;;;11.60;10.70;;;;;;;;;;4996090;28;20021;-59
2023/01/20 04:58:35;;;;;;;10.63;9.93;;;;;;;;;;4996548;28;20038;-59
2023/01/20 05:01:01;;;;;;;11.43;10.73;;;;;;;;;;5003652;28;20101;-60
2023/01/20 05:03:26;;;;;;;11.73;10.93;;;;;;;;;;4994214;28;20041;-59
2023/01/20 05:05:55;;;;;;;10.75;9.77;;;;;;;;;;4983734;28;20548;-59
2023/01/20 05:08:21;;;;;;;12.27;11.48;;;;;;;;;;4998667;28;20038;-58
2023/01/20 05:10:46;;;;;;;11.90;11.10;;;;;;;;;;4995334;28;20049;-59
2023/01/20 05:13:12;;;;;;;11.60;10.80;;;;;;;;;;4993424;28;20030;-59
2023/01/20 05:15:39;;;;;;;10.20;9.52;;;;;;;;;;4994749;28;20037;-59
2023/01/20 05:18:04;;;;;;;11.25;10.45;;;;;;;;;;4994319;28;20621;-59
2023/01/20 05:20:29;;;;;;;12.50;11.35;;;;;;;;;;4997156;28;20057;-59
2023/01/20 05:22:55;;;;;;;11.85;11.05;;;;;;;;;;4996006;28;20049;-59
2023/01/20 05:25:20;;;;;;;11.43;10.63;;;;;;;;;;4996005;28;20070;-59
2023/01/20 05:27:46;;;;;;;11.80;11.00;;;;;;;;;;4996799;28;21047;-59
2023/01/20 05:30:11;;;;;;;12.32;11.27;;;;;;;;;;4991030;28;20457;-59
2023/01/20 05:32:36;;;;;;;12.73;11.88;;;;;;;;;;4994236;28;20096;-59
2023/01/20 05:35:02;;;;;;;11.32;10.52;;;;;;;;;;4995438;28;20041;-59
2023/01/20 05:37:28;;;;;;;10.90;10.10;;;;;;;;;;4994714;28;20041;-59
2023/01/20 05:39:53;;;;;;;10.80;10.00;;;;;;;;;;4997647;28;20502;-59
2023/01/20 05:42:19;;;;;;;10.25;9.55;;;;;;;;;;4995779;28;20034;-59
2023/01/20 05:44:44;;;;;;;10.50;9.80;;;;;;;;;;4999237;28;20034;-59
2023/01/20 05:47:09;;;;;;;9.93;9.23;;;;;;;;;;4997978;28;20036;-59
2023/01/20 05:49:34;;;;;;;11.65;10.80;;;;;;;;;;4997140;28;20095;-59
2023/01/20 05:52:00;;;;;;;10.00;9.30;;;;;;;;;;4994656;28;20112;-59
2023/01/20 05:54:25;;;;;;;10.73;10.02;;;;;;;;;;4995198;28;20459;-59
2023/01/20 05:56:51;;;;;;;12.70;11.70;;;;;;;;;;4996445;28;20384;-60
2023/01/20 05:59:16;;;;;;;10.90;10.18;;;;;;;;;;4997034;28;20132;-59
2023/01/20 06:01:42;;;;;;;9.10;8.50;;;;;;;;;;4996401;28;20037;-60
2023/01/20 06:04:07;;;;;;;10.10;9.30;;;;;;;;;;4991770;28;20088;-59
2023/01/20 06:06:32;;;;;;;11.07;10.27;;;;;;;;;;4995337;28;20663;-60
2023/01/20 06:08:58;;;;;;;11.20;10.38;;;;;;;;;;4992484;28;20076;-60
2023/01/20 06:11:23;;;;;;;11.90;11.02;;;;;;;;;;4993624;28;20034;-60
2023/01/20 06:13:49;;;;;;;11.05;10.27;;;;;;;;;;4995568;28;20501;-59
2023/01/20 06:16:18;;;;;;;11.05;10.23;;;;;;;;;;4993690;28;20029;-59
2023/01/20 06:18:44;;;;;;;11.63;10.85;;;;;;;;;;4995652;28;20088;-59
2023/01/20 06:21:10;;;;;;;11.75;10.75;;;;;;;;;;4992719;28;20116;-59
2023/01/20 06:23:35;;;;;;;10.27;9.52;;;;;;;;;;4994910;28;20085;-59
2023/01/20 06:26:07;;;;;;;11.05;10.25;;;;;;;;;;4995413;28;20088;-59
2023/01/20 06:28:32;;;;;;;11.18;9.95;;;;;;;;;;4990113;28;20033;-59
2023/01/20 06:31:10;;;;;;;10.77;10.02;;;;;;;;;;4994204;28;20459;-59
2023/01/20 06:33:35;;;;;;;11.70;10.90;;;;;;;;;;4993711;28;20444;-60
2023/01/20 06:36:03;;;;;;;12.32;11.50;;;;;;;;;;4994869;28;20040;-60
2023/01/20 06:38:32;;;;;;;10.57;9.82;;;;;;;;;;4995343;28;20137;-59
2023/01/20 06:40:59;;;;;;;11.93;11.13;;;;;;;;;;5002314;28;20038;-59
2023/01/20 06:43:24;;;;;;;10.13;9.43;;;;;;;;;;4996638;28;20045;-59
2023/01/20 06:45:50;;;;;;;12.10;11.10;;;;;;;;;;4995459;28;20038;-59
2023/01/20 06:48:15;;;;;;;11.05;10.25;;;;;;;;;;4995945;28;20061;-59
2023/01/20 06:50:40;;;;;;;12.25;11.35;;;;;;;;;;4994586;28;20096;-59
2023/01/20 06:53:07;;;;;;;11.13;10.35;;;;;;;;;;4996091;28;20528;-59
2023/01/20 06:55:32;;;;;;;11.57;10.75;;;;;;;;;;4994279;28;20044;-59
2023/01/20 06:57:58;;;;;;;10.30;9.60;;;;;;;;;;4992481;28;20038;-59
2023/01/20 07:00:23;;;;;;;11.32;10.52;;;;;;;;;;4992742;28;20448;-59
2023/01/20 07:02:49;;;;;;;11.85;10.95;;;;;;;;;;4993961;28;20117;-59
2023/01/20 07:05:14;;;;;;;10.90;10.02;;;;;;;;;;4994126;28;20174;-59
2023/01/20 07:07:43;;;;;;;11.30;10.50;;;;;;;;;;4995118;28;20034;-59
2023/01/20 07:10:09;;;;;;;10.68;9.98;;;;;;;;;;4994260;28;20034;-59
2023/01/20 07:12:35;;;;;;;10.75;10.05;;;;;;;;;;4993110;28;20481;-59
2023/01/20 07:15:00;;;;;;;11.70;10.90;;;;;;;;;;4994024;28;20042;-59
2023/01/20 07:17:25;;;;;;;11.50;10.70;;;;;;;;;;4994669;28;20031;-59
2023/01/20 07:19:51;;;;;;;11.88;11.18;;;;;;;;;;4997974;28;20029;-59
2023/01/20 07:22:16;;;;;;;11.85;11.05;;;;;;;;;;4993552;28;20117;-60
2023/01/20 07:24:41;;;;;;;11.68;10.88;;;;;;;;;;4995144;28;20113;-60
2023/01/20 07:27:06;;;;;;;11.60;10.80;;;;;;;;;;5002203;28;20145;-59
2023/01/20 07:29:32;;;;;;;12.90;12.10;;;;;;;;;;4995560;28;20116;-59
2023/01/20 07:31:57;;;;;;;10.85;10.15;;;;;;;;;;4993248;28;20477;-59
2023/01/20 07:34:23;;;;;;;13.07;11.98;;;;;;;;;;4994165;28;20029;-61
2023/01/20 07:36:51;;;;;;;12.05;11.25;;;;;;;;;;4997185;28;20088;-61
2023/01/20 07:39:18;;;;;;;11.55;10.80;;;;;;;;;;4993321;28;20073;-62
2023/01/20 07:41:47;;;;;;;11.68;10.75;;;;;;;;;;4998562;28;20133;-60
2023/01/20 07:44:13;;;;;;;12.00;11.10;;;;;;;;;;4993736;28;20494;-60
2023/01/20 07:46:39;;;;;;;12.63;11.73;;;;;;;;;;4996253;28;20049;-61
2023/01/20 07:49:04;;;;;;;10.93;10.18;;;;;;;;;;4996591;28;20391;-60
2023/01/20 07:51:29;;;;;;;11.73;11.02;;;;;;;;;;4997084;28;20049;-60
2023/01/20 07:53:55;;;;;;;11.60;10.80;;;;;;;;;;4998518;28;20041;-60
2023/01/20 07:56:26;;;;;;;11.27;10.50;;;;;;;;;;4999806;28;20022;-61
2023/01/20 07:58:52;;;;;;;10.38;9.68;;;;;;;;;;5012850;28;20080;-60
2023/01/20 08:01:18;;;;;;;11.75;10.98;;;;;;;;;;4995745;28;20185;-61
2023/01/20 08:03:44;;;;;;;11.02;10.32;;;;;;;;;;4996431;28;20034;-60
2023/01/20 08:06:12;;;;;;;11.63;10.82;;;;;;;;;;4996549;28;20034;-61
2023/01/20 08:08:38;;;;;;;11.65;10.75;;;;;;;;;;4996037;28;20035;-61
2023/01/20 08:11:04;;;;;;;12.25;11.45;;;;;;;;;;4995966;28;20050;-61
2023/01/20 08:13:30;;;;;;;11.70;10.90;;;;;;;;;;4995860;28;20041;-61
2023/01/20 08:16:01;;;;;;;11.55;10.75;;;;;;;;;;4999102;28;20048;-61
2023/01/20 08:18:28;;;;;;;10.93;10.23;;;;;;;;;;4999692;28;20050;-61
2023/01/20 08:20:53;;;;;;;12.65;11.75;;;;;;;;;;4997927;28;20038;-60
2023/01/20 08:23:18;;;;;;;11.85;11.05;;;;;;;;;;5000461;28;20030;-60
2023/01/20 08:25:45;;;;;;;12.32;11.27;;;;;;;;;;4999766;28;20033;-60
2023/01/20 08:28:10;;;;;;;10.65;9.95;;;;;;;;;;4998832;28;20041;-61
2023/01/20 08:30:36;;;;;;;12.13;11.00;;;;;;;;;;4999181;28;20525;-60
2023/01/20 08:33:01;;;;;;;10.60;9.90;;;;;;;;;;4980321;28;20040;-60
2023/01/20 08:35:26;;;;;;;10.40;9.70;;;;;;;;;;4996824;28;20034;-60
2023/01/20 08:37:52;;;;;;;11.75;10.85;;;;;;;;;;4997669;28;20086;-60
2023/01/20 08:40:17;;;;;;;10.48;9.77;;;;;;;;;;4998167;28;20116;-61
2023/01/20 08:42:43;;;;;;;12.32;10.75;;;;;;;;;;4998886;28;20157;-61
2023/01/20 08:45:08;;;;;;;11.32;10.52;;;;;;;;;;4999724;28;20026;-60
2023/01/20 08:47:35;;;;;;;11.93;11.13;;;;;;;;;;4996348;28;20634;-61
2023/01/20 08:50:02;;;;;;;10.77;10.05;;;;;;;;;;4999094;28;20538;-61
2023/01/20 08:52:28;;;;;;;10.65;9.93;;;;;;;;;;4996133;28;20110;-60
2023/01/20 08:54:53;;;;;;;10.93;10.23;;;;;;;;;;4997368;28;20116;-61
2023/01/20 08:57:18;;;;;;;11.80;10.88;;;;;;;;;;4996278;28;20114;-60
2023/01/20 08:59:45;;;;;;;11.20;10.40;;;;;;;;;;4994404;28;20030;-61
2023/01/20 09:02:11;;;;;;;11.85;11.02;;;;;;;;;;4994565;28;20030;-60
2023/01/20 09:04:36;;;;;;;10.70;10.00;;;;;;;;;;4996114;28;20030;-60
2023/01/20 09:07:02;;;;;;;10.95;10.15;;;;;;;;;;4995640;28;20037;-60
2023/01/20 09:09:28;;;;;;;10.95;10.15;;;;;;;;;;4996770;28;20072;-61
2023/01/20 09:11:53;;;;;;;12.13;10.23;;;;;;;;;;4997273;28;20490;-61
2023/01/20 09:14:20;;;;;;;10.65;9.95;;;;;;;;;;4995644;28;20060;-61
2023/01/20 09:16:46;;;;;;;11.70;10.80;;;;;;;;;;4994779;28;20030;-61
2023/01/20 09:19:11;;;;;;;10.43;9.73;;;;;;;;;;4997605;28;20517;-60
2023/01/20 09:21:36;;;;;;;10.90;10.10;;;;;;;;;;4995055;28;20041;-61
2023/01/20 09:24:02;;;;;;;12.02;11.20;;;;;;;;;;4996088;28;20049;-61
2023/01/20 09:26:37;;;;;;;11.35;10.55;;;;;;;;;;4996287;28;20045;-60
2023/01/20 09:29:10;;;;;;;10.75;10.00;;;;;;;;;;4997763;28;20456;-61
2023/01/20 09:31:43;;;;;;;11.90;11.00;;;;;;;;;;4993563;28;20803;-60
2023/01/20 09:34:09;;;;;;;11.75;10.95;;;;;;;;;;4996250;28;20046;-60
2023/01/20 09:36:35;;;;;;;11.63;10.82;;;;;;;;;;4997056;28;20527;-60
2023/01/20 09:44:49;;;;;;;10.73;9.95;;;;;;;;;;4996301;28;20042;-60
2023/01/20 09:47:28;;;;;;;11.05;10.25;;;;;;;;;;4997007;28;20098;-60
2023/01/20 09:53:14;;;;;;;9.40;8.80;;;;;;;;;;4994672;28;20062;-60
2023/01/20 09:56:06;;;;;;;10.60;9.90;;;;;;;;;;4997200;28;20045;-60
2023/01/20 09:58:35;;;;;;;10.95;10.20;;;;;;;;;;4993677;28;20034;-60
2023/01/20 10:01:23;;;;;;;11.15;10.35;;;;;;;;;;4996460;28;20037;-60
2023/01/20 10:03:58;;;;;;;10.05;9.32;;;;;;;;;;4997421;28;20030;-63
2023/01/20 10:07:07;;;;;;;10.82;10.05;;;;;;;;;;4995200;28;20038;-60
2023/01/20 10:09:40;;;;;;;10.73;9.93;;;;;;;;;;4987232;28;20145;-60
2023/01/20 10:12:29;;;;;;;10.18;9.48;;;;;;;;;;4990939;28;20480;-60
2023/01/20 10:15:08;;;;;;;10.70;9.82;;;;;;;;;;4990856;28;20101;-60
2023/01/20 10:17:50;;;;;;;11.02;10.32;;;;;;;;;;4992088;28;20468;-60
2023/01/20 10:20:34;;;;;;;;;;;;;;;;;;4994410;28;20042;-60
2023/01/20 10:23:12;;;;;;;11.88;11.07;;;;;;;;;;4996333;28;19937;-60
2023/01/20 10:25:44;;;;;;;12.23;11.43;;;;;;;;;;4998150;28;20037;-60
2023/01/20 10:28:27;;;;;;;11.73;10.93;;;;;;;;;;4996255;28;20033;-60
2023/01/20 10:30:52;;;;;;;11.90;11.10;;;;;;;;;;4993701;28;20042;-60
2023/01/20 10:33:25;;;;;;;11.63;10.88;;;;;;;;;;4994115;28;20044;-61
2023/01/20 10:35:53;;;;;;;11.63;10.75;;;;;;;;;;4997478;28;20030;-60
2023/01/20 10:38:37;;;;;;;12.27;11.20;;;;;;;;;;4995598;28;20038;-60
2023/01/20 10:41:13;;;;;;;11.77;10.88;;;;;;;;;;4995049;28;20070;-57
2023/01/20 10:43:39;;;;;;;10.43;9.73;;;;;;;;;;4996493;28;20033;-59
2023/01/20 10:46:10;;;;;;;11.13;10.32;;;;;;;;;;4999423;28;20037;-57
2023/01/20 10:49:01;;;;;;;10.35;9.65;;;;;;;;;;4993435;28;20038;-55
2023/01/20 10:51:33;;;;;;;;;;;;;;;;;;4992579;28;20374;-53
2023/01/20 10:54:26;;;;;;;11.38;10.63;;;;;;;;;;4993959;28;19925;-54
2023/01/20 10:56:54;;;;;;;11.27;10.50;;;;;;;;;;4993826;28;20034;-54
2023/01/20 10:59:40;;;;;;;13.30;12.23;;;;;;;;;;4992699;28;20089;-51
2023/01/20 11:02:11;;;;;;;10.88;10.18;;;;;;;;;;4993614;28;20034;-55
2023/01/20 11:04:36;;;;;;;;;;;;;;;;;;4998301;28;20030;-54
2023/01/20 11:07:02;;;;;;;11.63;10.82;;;;;;;;;;4994143;28;20489;-55
2023/01/20 11:09:36;;;;;;;11.98;11.07;;;;;;;;;;4994012;28;20034;-55
2023/01/20 11:12:05;;;;;;;12.18;11.15;;;;;;;;;;4993381;28;20037;-54
2023/01/20 11:14:31;;;;;;;12.18;11.38;;;;;;;;;;4993955;28;20125;-52
2023/01/20 11:17:04;;;;;;;11.90;11.05;;;;;;;;;;4995650;28;20128;-54
2023/01/20 11:19:48;;;;;;;11.65;10.95;;;;;;;;;;4992112;28;20093;-55
2023/01/20 11:22:23;;;;;;;12.85;11.95;;;;;;;;;;4993076;28;20030;-55
2023/01/20 11:24:53;;;;;;;12.30;11.40;;;;;;;;;;4999553;28;20054;-56
2023/01/20 11:27:21;;;;;;;11.73;10.93;;;;;;;;;;4997212;28;20459;-53
2023/01/20 11:30:22;;;;;;;10.60;9.90;;;;;;;;;;4996161;28;20035;-55
2023/01/20 11:33:07;;;;;;;12.00;11.10;;;;;;;;;;5004312;28;20030;-55
2023/01/20 11:35:32;;;;;;;11.63;10.82;;;;;;;;;;4998064;28;20034;-56
2023/01/20 11:38:18;;;;;;;12.05;11.15;;;;;;;;;;4997333;28;20108;-57
2023/01/20 11:40:51;;;;;;;11.93;11.13;;;;;;;;;;4999093;28;20029;-56
2023/01/20 11:43:47;;;;;;;20.77;10.45;;;;;;;;;;5005301;28;20041;-56
2023/01/20 11:46:25;;;;;;;12.98;12.05;;;;;;;;;;4999995;28;20053;-57
2023/01/20 11:49:13;;;;;;;11.02;10.25;;;;;;;;;;5000509;28;20029;-55
2023/01/20 11:51:47;;;;;;;11.25;10.55;;;;;;;;;;4997294;28;20034;-57
2023/01/20 11:54:17;;;;;;;10.80;10.10;;;;;;;;;;4997350;28;20597;-57
2023/01/20 11:56:46;;;;;;;11.77;11.00;;;;;;;;;;5000218;28;20067;-57
2023/01/20 11:59:29;;;;;;;11.23;10.52;;;;;;;;;;4999910;28;20874;-55
2023/01/20 12:02:03;;;;;;;11.35;10.63;;;;;;;;;;4996704;28;20034;-57
2023/01/20 12:04:37;;;;;;;10.88;10.13;;;;;;;;;;4997012;28;20038;-56
2023/01/20 12:07:24;;;;;;;12.88;12.00;;;;;;;;;;4995374;28;20034;-57
2023/01/20 12:09:57;;;;;;;13.93;12.73;;;;;;;;;;4996160;28;20519;-57
2023/01/20 12:12:44;;;;;;;11.13;10.32;;;;;;;;;;4994939;28;20045;-56
2023/01/20 12:15:19;;;;;;;14.23;13.23;;;;;;;;;;4996094;28;20037;-55
2023/01/20 12:17:54;;;;;;;12.70;11.80;;;;;;;;;;4996709;28;20065;-54
2023/01/20 12:20:34;;;;;;;12.25;11.43;;;;;;;;;;4995835;28;20045;-56
2023/01/20 12:23:38;;;;;;;16.67;15.00;;;;;;;;;;4995411;28;20121;-54
2023/01/20 12:26:05;;;;;;;13.00;12.00;;;;;;;;;;5000121;28;20041;-56
2023/01/20 12:28:44;;;;;;;13.30;12.25;;;;;;;;;;4997470;28;20034;-56
2023/01/20 12:31:12;;;;;;;23.33;20.83;;;;;;;;;;4994006;28;20034;-55
2023/01/20 12:33:59;;;;;;;15.88;14.73;;;;;;;;;;4994193;28;20371;-54
2023/01/20 12:36:25;;;;;;;12.23;11.43;;;;;;;;;;4996203;28;20353;-56
2023/01/20 12:39:09;;;;;;;12.38;11.55;;;;;;;;;;4997345;28;20108;-56
2023/01/20 12:42:08;;;;;;;11.40;10.63;;;;;;;;;;4995531;28;20022;-54
2023/01/20 12:44:55;;;;;;;12.68;11.77;;;;;;;;;;4994753;28;20132;-57
2023/01/20 12:47:26;;;;;;;14.73;13.55;;;;;;;;;;4998953;28;20030;-56
2023/01/20 12:49:58;;;;;;;;;;;;;;;;;;4995980;28;20038;-57
2023/01/20 12:52:38;;;;;;;;;;;;;;;;;;4996996;28;19918;-58
2023/01/20 12:55:25;;;;;;;12.60;11.77;;;;;;;;;;5013488;28;19945;-55
2023/01/20 12:57:59;;;;;;;11.77;11.00;;;;;;;;;;4996803;28;20109;-57
2023/01/20 13:00:30;;;;;;;14.35;13.45;;;;;;;;;;4993147;28;20026;-56
2023/01/20 13:03:05;;;;;;;;;;;;;;;;;;4998810;28;20030;-55
2023/01/20 13:05:45;;;;;;;11.77;11.05;;;;;;;;;;4996260;28;20259;-56
2023/01/20 13:08:31;;;;;;;12.02;11.30;;;;;;;;;;4996064;28;20148;-57
2023/01/20 13:11:10;;;;;;;12.60;11.70;;;;;;;;;;4994963;28;20356;-56
2023/01/20 13:13:53;;;;;;;12.82;11.93;;;;;;;;;;5000202;28;20130;-56
2023/01/20 13:16:50;;;;;;;12.10;11.30;;;;;;;;;;4997759;28;20097;-56
2023/01/20 13:19:28;;;;;;;11.45;10.75;;;;;;;;;;4995195;28;20048;-56
2023/01/20 13:21:54;;;;;;;11.98;11.20;;;;;;;;;;4995125;28;20034;-55
2023/01/20 13:24:28;;;;;;;12.13;11.32;;;;;;;;;;4993567;28;20447;-57
2023/01/20 13:26:56;;;;;;;13.50;12.60;;;;;;;;;;4993636;28;20096;-56
2023/01/20 13:29:40;;;;;;;12.27;11.43;;;;;;;;;;4995870;28;20080;-56
2023/01/20 13:32:24;;;;;;;12.18;11.30;;;;;;;;;;5001774;28;20145;-56
2023/01/20 13:34:49;;;;;;;12.35;11.45;;;;;;;;;;4998389;28;20065;-55
2023/01/20 13:37:15;;;;;;;11.45;10.75;;;;;;;;;;4996090;28;20033;-57
2023/01/20 13:39:48;;;;;;;11.65;10.88;;;;;;;;;;4995035;28;20109;-56
2023/01/20 13:42:35;;;;;;;12.82;11.90;;;;;;;;;;4994173;28;20116;-56
2023/01/20 13:45:10;;;;;;;12.68;11.73;;;;;;;;;;4992850;28;20034;-56
2023/01/20 13:47:56;;;;;;;11.88;11.15;;;;;;;;;;4994749;28;20038;-57
2023/01/20 13:50:24;;;;;;;12.45;11.55;;;;;;;;;;4997618;28;20034;-57
2023/01/20 13:52:50;;;;;;;12.70;11.90;;;;;;;;;;5000669;28;20033;-56
2023/01/20 13:55:44;;;;;;;12.27;11.40;;;;;;;;;;4998965;28;20087;-57
2023/01/20 13:58:18;;;;;;;12.60;11.80;;;;;;;;;;4993634;28;20046;-56
2023/01/20 14:00:44;;;;;;;12.50;11.70;;;;;;;;;;4992604;28;20596;-57
2023/01/20 14:03:19;;;;;;;13.10;12.18;;;;;;;;;;4992727;28;20040;-53
2023/01/20 14:05:52;;;;;;;12.82;12.02;;;;;;;;;;4997933;28;20045;-55
2023/01/20 14:08:19;;;;;;;12.38;11.57;;;;;;;;;;4994539;28;20041;-54
2023/01/20 14:10:45;;;;;;;12.35;11.55;;;;;;;;;;4994091;28;20126;-55
2023/01/20 14:13:17;;;;;;;13.05;12.15;;;;;;;;;;4994463;28;20470;-56
2023/01/20 14:15:51;;;;;;;12.70;11.90;;;;;;;;;;4995155;28;20053;-56
2023/01/20 14:18:20;;;;;;;17.73;12.02;;;;;;;;;;4994425;28;20069;-56
2023/01/20 14:21:20;;;;;;;12.85;12.05;;;;;;;;;;4992870;28;20162;-55
2023/01/20 14:23:46;;;;;;;13.32;12.50;;;;;;;;;;4994118;28;20040;-55
2023/01/20 14:26:19;;;;;;;11.98;11.15;;;;;;;;;;4996928;28;20037;-54
2023/01/20 14:28:50;;;;;;;12.45;11.65;;;;;;;;;;4994515;28;20061;-53
2023/01/20 14:31:17;;;;;;;;;;;;;;;;;;4999231;28;20045;-52
2023/01/20 14:33:50;;;;;;;12.13;11.30;;;;;;;;;;4993589;28;20292;-58
2023/01/20 14:36:18;;;;;;;12.85;11.95;;;;;;;;;;4994615;28;20110;-56
2023/01/20 14:38:49;;;;;;;11.98;11.27;;;;;;;;;;4995725;28;20093;-56
2023/01/20 14:41:52;;;;;;;13.13;12.32;;;;;;;;;;4993497;28;20034;-56
2023/01/20 14:44:23;;;;;;;13.65;12.38;;;;;;;;;;4996643;28;20049;-55
2023/01/20 14:46:51;;;;;;;11.90;11.10;;;;;;;;;;4997376;28;20419;-54
2023/01/20 14:49:19;;;;;;;11.48;10.77;;;;;;;;;;4998431;28;20042;-56
2023/01/20 14:51:46;;;;;;;12.88;12.00;;;;;;;;;;5013073;28;20048;-55
2023/01/20 14:54:29;;;;;;;12.80;11.40;;;;;;;;;;4987119;28;20049;-56